sensor_id;sensor_type;location;lat;lon;timestamp;P1;durP1;ratioP1;P2;durP2;ratioP2
75506;SDS011;64086;43.220;27.878;2022-12-10T00:00:17;30.45;;;20.15;;
75506;SDS011;64086;43.220;27.878;2022-12-10T00:02:42;27.02;;;20.27;;
75506;SDS011;64086;43.220;27.878;2022-12-10T00:05:08;26.83;;;19.55;;
75506;SDS011;64086;43.220;27.878;2022-12-10T00:07:33;29.15;;;20.15;;
75506;SDS011;64086;43.220;27.878;2022-12-10T00:09:59;26.92;;;19.60;;
75506;SDS011;64086;43.220;27.878;2022-12-10T00:12:24;31.13;;;20.45;;
75506;SDS011;64086;43.220;27.878;2022-12-10T00:14:49;34.13;;;23.48;;
75506;SDS011;64086;43.220;27.878;2022-12-10T00:17:15;47.90;;;34.90;;
75506;SDS011;64086;43.220;27.878;2022-12-10T00:19:40;50.42;;;37.20;;
75506;SDS011;64086;43.220;27.878;2022-12-10T00:22:06;41.85;;;30.60;;
75506;SDS011;64086;43.220;27.878;2022-12-10T00:24:31;46.88;;;33.67;;
75506;SDS011;64086;43.220;27.878;2022-12-10T00:26:57;35.15;;;23.33;;
75506;SDS011;64086;43.220;27.878;2022-12-10T00:29:22;30.90;;;21.83;;
75506;SDS011;64086;43.220;27.878;2022-12-10T00:31:47;28.23;;;19.85;;
75506;SDS011;64086;43.220;27.878;2022-12-10T00:34:13;30.23;;;22.88;;
75506;SDS011;64086;43.220;27.878;2022-12-10T00:36:44;30.42;;;21.63;;
75506;SDS011;64086;43.220;27.878;2022-12-10T00:39:12;27.07;;;19.67;;
75506;SDS011;64086;43.220;27.878;2022-12-10T00:41:39;31.40;;;21.85;;
75506;SDS011;64086;43.220;27.878;2022-12-10T00:44:05;28.02;;;21.33;;
75506;SDS011;64086;43.220;27.878;2022-12-10T00:46:30;31.15;;;21.30;;
75506;SDS011;64086;43.220;27.878;2022-12-10T00:48:57;30.92;;;21.52;;
75506;SDS011;64086;43.220;27.878;2022-12-10T00:51:23;30.83;;;21.70;;
75506;SDS011;64086;43.220;27.878;2022-12-10T00:53:50;28.35;;;21.52;;
75506;SDS011;64086;43.220;27.878;2022-12-10T00:56:18;29.25;;;21.13;;
75506;SDS011;64086;43.220;27.878;2022-12-10T00:58:44;32.10;;;20.55;;
75506;SDS011;64086;43.220;27.878;2022-12-10T01:01:12;29.15;;;19.67;;
75506;SDS011;64086;43.220;27.878;2022-12-10T01:03:40;31.33;;;19.90;;
75506;SDS011;64086;43.220;27.878;2022-12-10T01:06:07;34.78;;;21.95;;
75506;SDS011;64086;43.220;27.878;2022-12-10T01:08:34;30.25;;;19.45;;
75506;SDS011;64086;43.220;27.878;2022-12-10T01:10:59;26.63;;;19.30;;
75506;SDS011;64086;43.220;27.878;2022-12-10T01:13:25;29.15;;;19.98;;
75506;SDS011;64086;43.220;27.878;2022-12-10T01:15:50;30.67;;;20.20;;
75506;SDS011;64086;43.220;27.878;2022-12-10T01:18:15;32.65;;;20.23;;
75506;SDS011;64086;43.220;27.878;2022-12-10T01:20:41;26.10;;;19.35;;
75506;SDS011;64086;43.220;27.878;2022-12-10T01:23:06;26.52;;;20.02;;
75506;SDS011;64086;43.220;27.878;2022-12-10T01:25:32;33.53;;;20.77;;
75506;SDS011;64086;43.220;27.878;2022-12-10T01:27:57;33.42;;;20.48;;
75506;SDS011;64086;43.220;27.878;2022-12-10T01:30:22;28.67;;;20.45;;
75506;SDS011;64086;43.220;27.878;2022-12-10T01:32:48;30.05;;;19.90;;
75506;SDS011;64086;43.220;27.878;2022-12-10T01:35:13;26.85;;;19.23;;
75506;SDS011;64086;43.220;27.878;2022-12-10T01:37:39;30.73;;;19.00;;
75506;SDS011;64086;43.220;27.878;2022-12-10T01:40:04;30.80;;;20.45;;
75506;SDS011;64086;43.220;27.878;2022-12-10T01:42:30;31.65;;;23.20;;
75506;SDS011;64086;43.220;27.878;2022-12-10T01:44:57;30.42;;;21.80;;
75506;SDS011;64086;43.220;27.878;2022-12-10T01:47:24;33.20;;;22.23;;
75506;SDS011;64086;43.220;27.878;2022-12-10T01:49:49;34.20;;;21.65;;
75506;SDS011;64086;43.220;27.878;2022-12-10T01:52:15;29.80;;;21.60;;
75506;SDS011;64086;43.220;27.878;2022-12-10T01:54:42;31.20;;;22.02;;
75506;SDS011;64086;43.220;27.878;2022-12-10T01:57:18;36.80;;;22.13;;
75506;SDS011;64086;43.220;27.878;2022-12-10T01:59:54;34.42;;;22.33;;
75506;SDS011;64086;43.220;27.878;2022-12-10T02:02:42;33.05;;;21.65;;
75506;SDS011;64086;43.220;27.878;2022-12-10T02:05:32;30.15;;;21.50;;
75506;SDS011;64086;43.220;27.878;2022-12-10T02:08:35;29.23;;;20.20;;
75506;SDS011;64086;43.220;27.878;2022-12-10T02:11:18;37.17;;;21.92;;
75506;SDS011;64086;43.220;27.878;2022-12-10T02:14:34;31.25;;;23.90;;
75506;SDS011;64086;43.220;27.878;2022-12-10T02:22:00;46.97;;;33.58;;
75506;SDS011;64086;43.220;27.878;2022-12-10T02:24:28;43.33;;;31.67;;
75506;SDS011;64086;43.220;27.878;2022-12-10T02:27:04;35.72;;;24.23;;
75506;SDS011;64086;43.220;27.878;2022-12-10T02:29:34;29.38;;;22.23;;
75506;SDS011;64086;43.220;27.878;2022-12-10T02:32:05;39.55;;;27.42;;
75506;SDS011;64086;43.220;27.878;2022-12-10T02:34:43;40.93;;;31.80;;
75506;SDS011;64086;43.220;27.878;2022-12-10T02:37:14;41.35;;;29.35;;
75506;SDS011;64086;43.220;27.878;2022-12-10T02:39:45;39.47;;;27.88;;
75506;SDS011;64086;43.220;27.878;2022-12-10T02:42:12;36.38;;;24.85;;
75506;SDS011;64086;43.220;27.878;2022-12-10T02:44:38;36.22;;;21.95;;
75506;SDS011;64086;43.220;27.878;2022-12-10T02:47:05;31.48;;;21.42;;
75506;SDS011;64086;43.220;27.878;2022-12-10T02:49:32;28.73;;;21.52;;
75506;SDS011;64086;43.220;27.878;2022-12-10T02:51:59;31.55;;;21.85;;
75506;SDS011;64086;43.220;27.878;2022-12-10T02:54:41;36.53;;;25.70;;
75506;SDS011;64086;43.220;27.878;2022-12-10T03:02:16;33.92;;;26.08;;
75506;SDS011;64086;43.220;27.878;2022-12-10T03:04:46;35.55;;;26.35;;
75506;SDS011;64086;43.220;27.878;2022-12-10T03:07:19;43.20;;;26.55;;
75506;SDS011;64086;43.220;27.878;2022-12-10T03:09:51;34.90;;;26.30;;
75506;SDS011;64086;43.220;27.878;2022-12-10T03:12:25;42.05;;;26.90;;
75506;SDS011;64086;43.220;27.878;2022-12-10T03:15:05;40.72;;;28.27;;
75506;SDS011;64086;43.220;27.878;2022-12-10T03:17:33;36.63;;;27.80;;
75506;SDS011;64086;43.220;27.878;2022-12-10T03:19:59;39.95;;;27.70;;
75506;SDS011;64086;43.220;27.878;2022-12-10T03:22:25;35.80;;;25.35;;
75506;SDS011;64086;43.220;27.878;2022-12-10T03:24:51;39.65;;;23.80;;
75506;SDS011;64086;43.220;27.878;2022-12-10T03:27:19;40.13;;;23.48;;
75506;SDS011;64086;43.220;27.878;2022-12-10T03:29:53;34.83;;;24.30;;
75506;SDS011;64086;43.220;27.878;2022-12-10T03:32:24;29.50;;;22.60;;
75506;SDS011;64086;43.220;27.878;2022-12-10T03:34:51;30.27;;;21.35;;
75506;SDS011;64086;43.220;27.878;2022-12-10T03:37:18;35.15;;;23.23;;
75506;SDS011;64086;43.220;27.878;2022-12-10T03:39:45;31.30;;;22.63;;
75506;SDS011;64086;43.220;27.878;2022-12-10T03:42:10;29.65;;;21.70;;
75506;SDS011;64086;43.220;27.878;2022-12-10T03:44:37;35.03;;;21.70;;
75506;SDS011;64086;43.220;27.878;2022-12-10T03:47:04;30.20;;;22.13;;
75506;SDS011;64086;43.220;27.878;2022-12-10T03:49:30;28.50;;;20.85;;
75506;SDS011;64086;43.220;27.878;2022-12-10T03:51:56;32.25;;;20.58;;
75506;SDS011;64086;43.220;27.878;2022-12-10T03:54:21;31.80;;;21.52;;
75506;SDS011;64086;43.220;27.878;2022-12-10T03:56:47;36.50;;;24.45;;
75506;SDS011;64086;43.220;27.878;2022-12-10T03:59:13;31.33;;;22.73;;
75506;SDS011;64086;43.220;27.878;2022-12-10T04:01:39;29.02;;;21.98;;
75506;SDS011;64086;43.220;27.878;2022-12-10T04:04:05;31.20;;;22.50;;
75506;SDS011;64086;43.220;27.878;2022-12-10T04:06:31;35.60;;;22.92;;
75506;SDS011;64086;43.220;27.878;2022-12-10T04:08:56;30.98;;;21.60;;
75506;SDS011;64086;43.220;27.878;2022-12-10T04:11:22;32.20;;;22.42;;
75506;SDS011;64086;43.220;27.878;2022-12-10T04:13:48;30.17;;;24.35;;
75506;SDS011;64086;43.220;27.878;2022-12-10T04:16:33;35.60;;;24.55;;
75506;SDS011;64086;43.220;27.878;2022-12-10T04:19:00;37.50;;;22.92;;
75506;SDS011;64086;43.220;27.878;2022-12-10T04:21:28;33.67;;;22.48;;
75506;SDS011;64086;43.220;27.878;2022-12-10T04:24:14;36.83;;;27.65;;
75506;SDS011;64086;43.220;27.878;2022-12-10T04:26:59;51.35;;;34.15;;
75506;SDS011;64086;43.220;27.878;2022-12-10T04:29:26;35.70;;;21.92;;
75506;SDS011;64086;43.220;27.878;2022-12-10T04:31:53;50.42;;;35.83;;
75506;SDS011;64086;43.220;27.878;2022-12-10T04:34:19;47.15;;;34.05;;
75506;SDS011;64086;43.220;27.878;2022-12-10T04:36:48;69.32;;;53.67;;
75506;SDS011;64086;43.220;27.878;2022-12-10T04:39:13;64.57;;;45.72;;
75506;SDS011;64086;43.220;27.878;2022-12-10T04:41:40;64.75;;;43.15;;
75506;SDS011;64086;43.220;27.878;2022-12-10T04:44:06;57.03;;;39.30;;
75506;SDS011;64086;43.220;27.878;2022-12-10T04:46:32;48.78;;;34.45;;
75506;SDS011;64086;43.220;27.878;2022-12-10T04:48:57;39.30;;;25.83;;
75506;SDS011;64086;43.220;27.878;2022-12-10T04:51:22;41.10;;;26.00;;
75506;SDS011;64086;43.220;27.878;2022-12-10T04:53:48;42.90;;;26.20;;
75506;SDS011;64086;43.220;27.878;2022-12-10T04:56:13;36.90;;;24.25;;
75506;SDS011;64086;43.220;27.878;2022-12-10T04:58:39;34.72;;;23.45;;
75506;SDS011;64086;43.220;27.878;2022-12-10T05:01:05;35.28;;;25.15;;
75506;SDS011;64086;43.220;27.878;2022-12-10T05:03:32;34.97;;;23.15;;
75506;SDS011;64086;43.220;27.878;2022-12-10T05:06:01;36.53;;;22.48;;
75506;SDS011;64086;43.220;27.878;2022-12-10T05:08:37;32.33;;;23.80;;
75506;SDS011;64086;43.220;27.878;2022-12-10T05:11:05;36.97;;;25.45;;
75506;SDS011;64086;43.220;27.878;2022-12-10T05:13:32;49.40;;;32.45;;
75506;SDS011;64086;43.220;27.878;2022-12-10T05:15:57;51.83;;;32.58;;
75506;SDS011;64086;43.220;27.878;2022-12-10T05:18:23;48.45;;;31.40;;
75506;SDS011;64086;43.220;27.878;2022-12-10T05:20:49;45.70;;;32.17;;
75506;SDS011;64086;43.220;27.878;2022-12-10T05:23:14;44.05;;;31.08;;
75506;SDS011;64086;43.220;27.878;2022-12-10T05:28:23;36.47;;;24.77;;
75506;SDS011;64086;43.220;27.878;2022-12-10T05:30:49;39.60;;;25.25;;
75506;SDS011;64086;43.220;27.878;2022-12-10T05:33:14;37.70;;;25.88;;
75506;SDS011;64086;43.220;27.878;2022-12-10T05:35:40;40.75;;;26.00;;
75506;SDS011;64086;43.220;27.878;2022-12-10T05:38:05;39.40;;;27.65;;
75506;SDS011;64086;43.220;27.878;2022-12-10T05:40:34;43.40;;;27.83;;
75506;SDS011;64086;43.220;27.878;2022-12-10T05:43:00;41.72;;;26.67;;
75506;SDS011;64086;43.220;27.878;2022-12-10T05:45:25;40.72;;;27.13;;
75506;SDS011;64086;43.220;27.878;2022-12-10T05:47:51;41.42;;;29.58;;
75506;SDS011;64086;43.220;27.878;2022-12-10T05:50:16;41.78;;;28.23;;
75506;SDS011;64086;43.220;27.878;2022-12-10T05:52:42;42.90;;;29.38;;
75506;SDS011;64086;43.220;27.878;2022-12-10T05:55:07;37.40;;;26.90;;
75506;SDS011;64086;43.220;27.878;2022-12-10T05:57:33;39.70;;;25.35;;
75506;SDS011;64086;43.220;27.878;2022-12-10T06:00:01;42.80;;;26.90;;
75506;SDS011;64086;43.220;27.878;2022-12-10T06:02:28;40.13;;;26.08;;
75506;SDS011;64086;43.220;27.878;2022-12-10T06:04:53;37.35;;;26.73;;
75506;SDS011;64086;43.220;27.878;2022-12-10T06:07:19;42.83;;;27.45;;
75506;SDS011;64086;43.220;27.878;2022-12-10T06:09:44;40.10;;;30.27;;
75506;SDS011;64086;43.220;27.878;2022-12-10T06:12:09;46.28;;;34.33;;
75506;SDS011;64086;43.220;27.878;2022-12-10T06:14:35;46.63;;;34.85;;
75506;SDS011;64086;43.220;27.878;2022-12-10T06:17:00;47.30;;;33.67;;
75506;SDS011;64086;43.220;27.878;2022-12-10T06:19:26;46.42;;;30.38;;
75506;SDS011;64086;43.220;27.878;2022-12-10T06:21:51;37.78;;;28.90;;
75506;SDS011;64086;43.220;27.878;2022-12-10T06:24:17;46.70;;;28.35;;
75506;SDS011;64086;43.220;27.878;2022-12-10T06:26:42;39.40;;;27.00;;
75506;SDS011;64086;43.220;27.878;2022-12-10T06:29:08;35.90;;;27.95;;
75506;SDS011;64086;43.220;27.878;2022-12-10T06:31:34;40.80;;;28.85;;
75506;SDS011;64086;43.220;27.878;2022-12-10T06:33:59;44.28;;;30.30;;
75506;SDS011;64086;43.220;27.878;2022-12-10T06:36:25;41.05;;;30.70;;
75506;SDS011;64086;43.220;27.878;2022-12-10T06:38:50;37.53;;;28.63;;
75506;SDS011;64086;43.220;27.878;2022-12-10T06:41:16;42.92;;;28.23;;
75506;SDS011;64086;43.220;27.878;2022-12-10T06:43:42;38.78;;;26.98;;
75506;SDS011;64086;43.220;27.878;2022-12-10T06:46:09;43.47;;;26.45;;
75506;SDS011;64086;43.220;27.878;2022-12-10T06:48:39;34.97;;;23.48;;
75506;SDS011;64086;43.220;27.878;2022-12-10T06:51:05;34.53;;;23.70;;
75506;SDS011;64086;43.220;27.878;2022-12-10T06:53:31;34.58;;;23.20;;
75506;SDS011;64086;43.220;27.878;2022-12-10T06:56:00;37.90;;;25.98;;
75506;SDS011;64086;43.220;27.878;2022-12-10T06:58:30;36.35;;;25.98;;
75506;SDS011;64086;43.220;27.878;2022-12-10T07:01:09;39.50;;;23.17;;
75506;SDS011;64086;43.220;27.878;2022-12-10T07:03:36;34.55;;;23.25;;
75506;SDS011;64086;43.220;27.878;2022-12-10T07:06:02;35.35;;;22.98;;
75506;SDS011;64086;43.220;27.878;2022-12-10T07:08:28;33.67;;;23.42;;
75506;SDS011;64086;43.220;27.878;2022-12-10T07:10:54;34.58;;;23.55;;
75506;SDS011;64086;43.220;27.878;2022-12-10T07:13:20;33.08;;;22.60;;
75506;SDS011;64086;43.220;27.878;2022-12-10T07:15:45;34.38;;;23.70;;
75506;SDS011;64086;43.220;27.878;2022-12-10T07:18:11;37.08;;;22.63;;
75506;SDS011;64086;43.220;27.878;2022-12-10T07:20:36;32.90;;;21.65;;
75506;SDS011;64086;43.220;27.878;2022-12-10T07:23:02;27.08;;;19.77;;
75506;SDS011;64086;43.220;27.878;2022-12-10T07:25:27;24.77;;;19.00;;
75506;SDS011;64086;43.220;27.878;2022-12-10T07:27:53;28.98;;;19.98;;
75506;SDS011;64086;43.220;27.878;2022-12-10T07:30:18;36.15;;;19.35;;
75506;SDS011;64086;43.220;27.878;2022-12-10T07:32:43;29.25;;;19.98;;
75506;SDS011;64086;43.220;27.878;2022-12-10T07:35:09;29.00;;;18.52;;
75506;SDS011;64086;43.220;27.878;2022-12-10T07:37:34;29.02;;;17.25;;
75506;SDS011;64086;43.220;27.878;2022-12-10T07:40:00;29.35;;;16.73;;
75506;SDS011;64086;43.220;27.878;2022-12-10T07:42:25;29.67;;;16.52;;
75506;SDS011;64086;43.220;27.878;2022-12-10T07:44:50;22.73;;;15.68;;
75506;SDS011;64086;43.220;27.878;2022-12-10T07:47:16;24.30;;;15.38;;
75506;SDS011;64086;43.220;27.878;2022-12-10T07:49:41;22.65;;;14.85;;
75506;SDS011;64086;43.220;27.878;2022-12-10T07:52:07;28.85;;;19.52;;
75506;SDS011;64086;43.220;27.878;2022-12-10T07:54:33;30.58;;;20.48;;
75506;SDS011;64086;43.220;27.878;2022-12-10T07:56:58;30.55;;;20.70;;
75506;SDS011;64086;43.220;27.878;2022-12-10T07:59:24;35.55;;;27.55;;
75506;SDS011;64086;43.220;27.878;2022-12-10T08:01:49;39.70;;;27.05;;
75506;SDS011;64086;43.220;27.878;2022-12-10T08:04:14;36.78;;;25.80;;
75506;SDS011;64086;43.220;27.878;2022-12-10T08:06:40;33.47;;;22.25;;
75506;SDS011;64086;43.220;27.878;2022-12-10T08:09:05;29.23;;;17.90;;
75506;SDS011;64086;43.220;27.878;2022-12-10T08:11:31;29.08;;;18.60;;
75506;SDS011;64086;43.220;27.878;2022-12-10T08:13:57;27.33;;;16.13;;
75506;SDS011;64086;43.220;27.878;2022-12-10T08:16:25;22.13;;;13.27;;
75506;SDS011;64086;43.220;27.878;2022-12-10T08:18:52;30.58;;;20.73;;
75506;SDS011;64086;43.220;27.878;2022-12-10T08:21:19;43.15;;;26.88;;
75506;SDS011;64086;43.220;27.878;2022-12-10T08:23:45;67.18;;;49.22;;
75506;SDS011;64086;43.220;27.878;2022-12-10T08:26:14;65.75;;;47.85;;
75506;SDS011;64086;43.220;27.878;2022-12-10T08:28:42;65.18;;;49.47;;
75506;SDS011;64086;43.220;27.878;2022-12-10T08:31:08;71.72;;;53.50;;
75506;SDS011;64086;43.220;27.878;2022-12-10T08:33:36;64.82;;;53.90;;
75506;SDS011;64086;43.220;27.878;2022-12-10T08:36:02;66.88;;;56.47;;
75506;SDS011;64086;43.220;27.878;2022-12-10T08:38:29;52.28;;;40.75;;
75506;SDS011;64086;43.220;27.878;2022-12-10T08:40:55;55.17;;;40.85;;
75506;SDS011;64086;43.220;27.878;2022-12-10T08:43:20;47.63;;;36.42;;
75506;SDS011;64086;43.220;27.878;2022-12-10T08:45:46;46.80;;;33.42;;
75506;SDS011;64086;43.220;27.878;2022-12-10T08:48:11;36.70;;;30.00;;
75506;SDS011;64086;43.220;27.878;2022-12-10T08:50:37;36.78;;;26.55;;
75506;SDS011;64086;43.220;27.878;2022-12-10T08:53:03;25.17;;;19.20;;
75506;SDS011;64086;43.220;27.878;2022-12-10T08:55:29;28.35;;;20.50;;
75506;SDS011;64086;43.220;27.878;2022-12-10T08:57:55;28.73;;;20.85;;
75506;SDS011;64086;43.220;27.878;2022-12-10T09:00:22;25.27;;;18.90;;
75506;SDS011;64086;43.220;27.878;2022-12-10T09:02:48;28.27;;;19.45;;
75506;SDS011;64086;43.220;27.878;2022-12-10T09:05:14;30.25;;;20.45;;
75506;SDS011;64086;43.220;27.878;2022-12-10T09:07:39;30.63;;;20.45;;
75506;SDS011;64086;43.220;27.878;2022-12-10T09:10:05;25.88;;;16.80;;
75506;SDS011;64086;43.220;27.878;2022-12-10T09:12:32;27.02;;;17.20;;
75506;SDS011;64086;43.220;27.878;2022-12-10T09:14:58;26.00;;;17.58;;
75506;SDS011;64086;43.220;27.878;2022-12-10T09:17:24;26.70;;;15.95;;
75506;SDS011;64086;43.220;27.878;2022-12-10T09:19:49;20.35;;;14.82;;
75506;SDS011;64086;43.220;27.878;2022-12-10T09:22:15;26.58;;;14.95;;
75506;SDS011;64086;43.220;27.878;2022-12-10T09:24:40;22.88;;;14.18;;
75506;SDS011;64086;43.220;27.878;2022-12-10T09:27:06;24.15;;;15.52;;
75506;SDS011;64086;43.220;27.878;2022-12-10T09:29:31;25.08;;;15.93;;
75506;SDS011;64086;43.220;27.878;2022-12-10T09:31:57;23.48;;;15.98;;
75506;SDS011;64086;43.220;27.878;2022-12-10T09:34:22;24.67;;;15.70;;
75506;SDS011;64086;43.220;27.878;2022-12-10T09:36:47;24.58;;;16.30;;
75506;SDS011;64086;43.220;27.878;2022-12-10T09:39:13;24.50;;;16.20;;
75506;SDS011;64086;43.220;27.878;2022-12-10T09:46:51;21.85;;;12.68;;
75506;SDS011;64086;43.220;27.878;2022-12-10T09:51:47;19.40;;;11.98;;
75506;SDS011;64086;43.220;27.878;2022-12-10T09:59:22;19.25;;;12.25;;
75506;SDS011;64086;43.220;27.878;2022-12-10T10:01:53;18.38;;;12.43;;
75506;SDS011;64086;43.220;27.878;2022-12-10T10:04:28;18.65;;;11.70;;
75506;SDS011;64086;43.220;27.878;2022-12-10T10:06:54;25.77;;;13.10;;
75506;SDS011;64086;43.220;27.878;2022-12-10T10:09:19;19.25;;;12.13;;
75506;SDS011;64086;43.220;27.878;2022-12-10T10:11:45;20.63;;;12.68;;
75506;SDS011;64086;43.220;27.878;2022-12-10T10:17:01;17.35;;;11.00;;
75506;SDS011;64086;43.220;27.878;2022-12-10T10:19:28;16.08;;;10.07;;
75506;SDS011;64086;43.220;27.878;2022-12-10T10:21:55;16.25;;;9.13;;
75506;SDS011;64086;43.220;27.878;2022-12-10T10:24:22;11.68;;;7.95;;
75506;SDS011;64086;43.220;27.878;2022-12-10T10:26:51;13.35;;;7.80;;
75506;SDS011;64086;43.220;27.878;2022-12-10T10:29:18;16.50;;;7.95;;
75506;SDS011;64086;43.220;27.878;2022-12-10T10:31:45;16.15;;;8.25;;
75506;SDS011;64086;43.220;27.878;2022-12-10T10:34:13;15.23;;;8.10;;
75506;SDS011;64086;43.220;27.878;2022-12-10T10:36:41;12.80;;;8.10;;
75506;SDS011;64086;43.220;27.878;2022-12-10T10:39:08;11.35;;;8.15;;
75506;SDS011;64086;43.220;27.878;2022-12-10T10:41:54;15.43;;;7.50;;
75506;SDS011;64086;43.220;27.878;2022-12-10T10:44:22;14.30;;;7.20;;
75506;SDS011;64086;43.220;27.878;2022-12-10T10:46:49;14.40;;;8.48;;
75506;SDS011;64086;43.220;27.878;2022-12-10T10:49:26;15.50;;;7.60;;
75506;SDS011;64086;43.220;27.878;2022-12-10T10:51:54;19.10;;;7.65;;
75506;SDS011;64086;43.220;27.878;2022-12-10T10:54:31;15.85;;;7.90;;
75506;SDS011;64086;43.220;27.878;2022-12-10T10:56:58;15.00;;;7.15;;
75506;SDS011;64086;43.220;27.878;2022-12-10T10:59:34;14.38;;;7.35;;
75506;SDS011;64086;43.220;27.878;2022-12-10T11:02:03;14.05;;;7.07;;
75506;SDS011;64086;43.220;27.878;2022-12-10T11:04:44;12.25;;;7.18;;
75506;SDS011;64086;43.220;27.878;2022-12-10T11:07:22;13.45;;;7.28;;
75506;SDS011;64086;43.220;27.878;2022-12-10T11:10:04;16.80;;;7.57;;
75506;SDS011;64086;43.220;27.878;2022-12-10T11:12:53;15.70;;;6.80;;
75506;SDS011;64086;43.220;27.878;2022-12-10T11:17:48;13.18;;;6.88;;
75506;SDS011;64086;43.220;27.878;2022-12-10T11:20:20;13.93;;;6.35;;
75506;SDS011;64086;43.220;27.878;2022-12-10T11:22:51;10.95;;;6.78;;
75506;SDS011;64086;43.220;27.878;2022-12-10T11:25:30;11.70;;;6.45;;
75506;SDS011;64086;43.220;27.878;2022-12-10T11:30:42;19.17;;;6.97;;
75506;SDS011;64086;43.220;27.878;2022-12-10T11:33:38;10.77;;;7.28;;
75506;SDS011;64086;43.220;27.878;2022-12-10T11:45:06;20.98;;;7.40;;
75506;SDS011;64086;43.220;27.878;2022-12-10T11:55:31;15.38;;;7.53;;
75506;SDS011;64086;43.220;27.878;2022-12-10T12:01:16;12.52;;;7.22;;
75506;SDS011;64086;43.220;27.878;2022-12-10T12:17:53;11.93;;;7.53;;
75506;SDS011;64086;43.220;27.878;2022-12-10T12:20:33;11.45;;;6.97;;
75506;SDS011;64086;43.220;27.878;2022-12-10T12:23:10;15.30;;;7.75;;
75506;SDS011;64086;43.220;27.878;2022-12-10T12:25:42;16.35;;;8.95;;
75506;SDS011;64086;43.220;27.878;2022-12-10T12:28:11;15.75;;;8.35;;
75506;SDS011;64086;43.220;27.878;2022-12-10T12:30:41;13.05;;;7.40;;
75506;SDS011;64086;43.220;27.878;2022-12-10T12:33:51;14.00;;;10.10;;
75506;SDS011;64086;43.220;27.878;2022-12-10T12:36:20;14.07;;;7.60;;
75506;SDS011;64086;43.220;27.878;2022-12-10T12:46:47;12.40;;;7.50;;
75506;SDS011;64086;43.220;27.878;2022-12-10T12:49:24;14.27;;;7.22;;
75506;SDS011;64086;43.220;27.878;2022-12-10T12:54:31;10.98;;;6.40;;
75506;SDS011;64086;43.220;27.878;2022-12-10T13:00:05;13.85;;;7.47;;
75506;SDS011;64086;43.220;27.878;2022-12-10T13:05:20;14.93;;;7.40;;
75506;SDS011;64086;43.220;27.878;2022-12-10T13:13:38;15.68;;;7.00;;
75506;SDS011;64086;43.220;27.878;2022-12-10T13:32:17;13.10;;;7.80;;
75506;SDS011;64086;43.220;27.878;2022-12-10T13:37:55;15.30;;;8.02;;
75506;SDS011;64086;43.220;27.878;2022-12-10T13:46:33;12.88;;;7.53;;
75506;SDS011;64086;43.220;27.878;2022-12-10T13:49:00;17.30;;;8.07;;
75506;SDS011;64086;43.220;27.878;2022-12-10T13:51:34;16.38;;;7.38;;
75506;SDS011;64086;43.220;27.878;2022-12-10T13:54:24;13.75;;;7.40;;
75506;SDS011;64086;43.220;27.878;2022-12-10T13:57:02;12.10;;;7.32;;
75506;SDS011;64086;43.220;27.878;2022-12-10T14:06:51;13.48;;;7.43;;
75506;SDS011;64086;43.220;27.878;2022-12-10T14:09:28;16.80;;;7.85;;
75506;SDS011;64086;43.220;27.878;2022-12-10T14:12:01;20.90;;;10.40;;
75506;SDS011;64086;43.220;27.878;2022-12-10T14:14:53;20.77;;;11.60;;
75506;SDS011;64086;43.220;27.878;2022-12-10T14:17:23;19.65;;;9.40;;
75506;SDS011;64086;43.220;27.878;2022-12-10T14:19:50;15.75;;;8.80;;
75506;SDS011;64086;43.220;27.878;2022-12-10T14:22:52;18.13;;;9.70;;
75506;SDS011;64086;43.220;27.878;2022-12-10T14:25:16;19.02;;;10.30;;
75506;SDS011;64086;43.220;27.878;2022-12-10T14:27:43;17.15;;;10.50;;
75506;SDS011;64086;43.220;27.878;2022-12-10T14:30:15;18.50;;;10.18;;
75506;SDS011;64086;43.220;27.878;2022-12-10T14:32:49;16.50;;;9.30;;
75506;SDS011;64086;43.220;27.878;2022-12-10T14:35:19;18.92;;;10.20;;
75506;SDS011;64086;43.220;27.878;2022-12-10T14:37:47;16.20;;;10.25;;
75506;SDS011;64086;43.220;27.878;2022-12-10T14:42:47;20.27;;;11.23;;
75506;SDS011;64086;43.220;27.878;2022-12-10T14:45:13;18.27;;;11.02;;
75506;SDS011;64086;43.220;27.878;2022-12-10T14:47:39;18.67;;;10.73;;
75506;SDS011;64086;43.220;27.878;2022-12-10T14:50:12;19.40;;;11.27;;
75506;SDS011;64086;43.220;27.878;2022-12-10T14:52:43;20.80;;;11.32;;
75506;SDS011;64086;43.220;27.878;2022-12-10T14:55:17;33.00;;;18.02;;
75506;SDS011;64086;43.220;27.878;2022-12-10T14:57:47;35.30;;;27.33;;
75506;SDS011;64086;43.220;27.878;2022-12-10T15:00:18;43.83;;;34.42;;
75506;SDS011;64086;43.220;27.878;2022-12-10T15:02:47;37.85;;;26.27;;
75506;SDS011;64086;43.220;27.878;2022-12-10T15:05:16;48.08;;;31.77;;
75506;SDS011;64086;43.220;27.878;2022-12-10T15:07:47;34.05;;;24.92;;
75506;SDS011;64086;43.220;27.878;2022-12-10T15:10:23;45.05;;;24.17;;
75506;SDS011;64086;43.220;27.878;2022-12-10T15:12:50;37.78;;;23.52;;
75506;SDS011;64086;43.220;27.878;2022-12-10T15:15:21;39.53;;;24.95;;
75506;SDS011;64086;43.220;27.878;2022-12-10T15:20:30;42.63;;;29.95;;
75506;SDS011;64086;43.220;27.878;2022-12-10T15:26:32;105.93;;;88.78;;
75506;SDS011;64086;43.220;27.878;2022-12-10T15:28:41;67.38;;;54.20;;
75506;SDS011;64086;43.220;27.878;2022-12-10T15:31:19;45.20;;;33.47;;
75506;SDS011;64086;43.220;27.878;2022-12-10T15:33:55;41.88;;;27.95;;
75506;SDS011;64086;43.220;27.878;2022-12-10T15:38:56;45.42;;;31.38;;
75506;SDS011;64086;43.220;27.878;2022-12-10T15:44:31;47.80;;;29.30;;
75506;SDS011;64086;43.220;27.878;2022-12-10T15:46:58;46.30;;;29.92;;
75506;SDS011;64086;43.220;27.878;2022-12-10T15:49:28;69.82;;;55.35;;
75506;SDS011;64086;43.220;27.878;2022-12-10T15:51:54;164.85;;;148.85;;
75506;SDS011;64086;43.220;27.878;2022-12-10T15:54:20;240.18;;;215.82;;
75506;SDS011;64086;43.220;27.878;2022-12-10T15:56:47;122.82;;;109.38;;
75506;SDS011;64086;43.220;27.878;2022-12-10T15:59:13;112.00;;;96.85;;
75506;SDS011;64086;43.220;27.878;2022-12-10T16:01:39;103.70;;;86.47;;
75506;SDS011;64086;43.220;27.878;2022-12-10T16:04:04;225.73;;;204.52;;
75506;SDS011;64086;43.220;27.878;2022-12-10T16:06:29;112.35;;;100.05;;
75506;SDS011;64086;43.220;27.878;2022-12-10T16:08:55;57.10;;;43.00;;
75506;SDS011;64086;43.220;27.878;2022-12-10T16:11:20;54.25;;;40.20;;
75506;SDS011;64086;43.220;27.878;2022-12-10T16:13:48;46.55;;;32.88;;
75506;SDS011;64086;43.220;27.878;2022-12-10T16:16:15;38.60;;;25.52;;
75506;SDS011;64086;43.220;27.878;2022-12-10T16:18:40;37.08;;;26.27;;
75506;SDS011;64086;43.220;27.878;2022-12-10T16:21:06;35.17;;;22.70;;
75506;SDS011;64086;43.220;27.878;2022-12-10T16:23:33;30.35;;;21.33;;
75506;SDS011;64086;43.220;27.878;2022-12-10T16:25:59;31.92;;;18.88;;
75506;SDS011;64086;43.220;27.878;2022-12-10T16:28:26;33.60;;;19.50;;
75506;SDS011;64086;43.220;27.878;2022-12-10T16:30:52;24.35;;;15.48;;
75506;SDS011;64086;43.220;27.878;2022-12-10T16:33:22;27.25;;;16.35;;
75506;SDS011;64086;43.220;27.878;2022-12-10T16:35:49;22.42;;;14.75;;